createdAt,value
2023-01-11T19:03:46.611Z,94212.80
2023-01-11T19:06:14.233Z,94211.40
2023-01-11T19:08:41.775Z,94212.40
2023-01-11T19:11:09.565Z,94211.00
2023-01-11T19:13:37.274Z,94211.80
2023-01-11T19:16:04.801Z,94217.80
2023-01-11T19:18:35.257Z,94222.00
2023-01-11T19:21:03.371Z,94226.00
2023-01-11T19:23:31.104Z,94232.60
2023-01-11T19:25:58.864Z,94232.40
2023-01-11T19:28:26.576Z,94236.60
2023-01-11T19:30:54.079Z,94243.80
2023-01-11T19:33:21.834Z,94244.80
2023-01-11T19:35:49.954Z,94253.60
2023-01-11T19:38:18.459Z,94255.20
2023-01-11T19:40:46.257Z,94257.40
2023-01-11T19:43:14.249Z,94252.00
2023-01-11T19:45:41.927Z,94249.20
2023-01-11T19:48:09.677Z,94251.20
2023-01-11T19:50:37.239Z,94251.60
2023-01-11T19:53:04.943Z,94251.00
2023-01-11T19:55:32.677Z,94247.80
2023-01-11T19:58:00.462Z,94249.40
2023-01-11T20:00:28.176Z,94260.20
2023-01-11T20:02:55.872Z,94259.00
2023-01-11T20:05:23.867Z,94262.00
2023-01-11T20:07:51.608Z,94261.80
2023-01-11T20:10:19.124Z,94253.80
2023-01-11T20:12:46.644Z,94252.00
2023-01-11T20:15:14.294Z,94253.60
2023-01-11T20:17:41.871Z,94260.60
2023-01-11T20:20:09.373Z,94250.80
2023-01-11T20:22:37.081Z,94250.20
2023-01-11T20:25:04.780Z,94257.00
2023-01-11T20:27:34.101Z,94255.40
2023-01-11T20:30:01.728Z,94254.40
2023-01-11T20:32:40.982Z,94248.60
2023-01-11T20:35:10.074Z,94243.40
2023-01-11T20:37:37.816Z,94248.40
2023-01-11T20:40:05.604Z,94243.00
2023-01-11T20:42:34.550Z,94243.80
2023-01-11T20:45:02.067Z,94243.80
2023-01-11T20:47:30.230Z,94246.80
2023-01-11T20:49:57.805Z,94247.00
2023-01-11T20:52:25.315Z,94243.80
2023-01-11T20:54:52.964Z,94241.80
2023-01-11T20:57:20.531Z,94242.60
2023-01-11T20:59:48.099Z,94240.60
2023-01-11T21:02:15.824Z,94241.40
2023-01-11T21:04:43.449Z,94246.20
2023-01-11T21:07:11.009Z,94239.80
2023-01-11T21:09:38.721Z,94235.20
2023-01-11T21:12:08.748Z,94240.20
2023-01-11T21:14:37.435Z,94237.40
2023-01-11T21:17:05.128Z,94237.20
2023-01-11T21:19:32.667Z,94240.80
2023-01-11T21:22:00.148Z,94239.20
2023-01-11T21:24:27.908Z,94233.00
2023-01-11T21:26:55.637Z,94229.60
2023-01-11T21:29:23.321Z,94242.20
2023-01-11T21:31:50.807Z,94251.00
2023-01-11T21:34:18.476Z,94251.80
2023-01-11T21:36:46.076Z,94256.00
2023-01-11T21:39:13.739Z,94256.40
2023-01-11T21:41:58.162Z,94250.80
2023-01-11T21:44:27.192Z,94249.00
2023-01-11T21:46:55.738Z,94259.40
2023-01-11T21:49:24.431Z,94259.00
2023-01-11T21:51:51.899Z,94265.40
2023-01-11T21:54:19.395Z,94274.20
2023-01-11T21:56:47.019Z,94274.60
2023-01-11T21:59:14.620Z,94280.80
2023-01-11T22:01:42.136Z,94282.40
2023-01-11T22:04:09.767Z,94281.40
2023-01-11T22:06:37.325Z,94274.00
2023-01-11T22:09:04.870Z,94279.80
2023-01-11T22:11:33.366Z,94278.60
2023-01-11T22:14:02.448Z,94278.40
2023-01-11T22:16:30.694Z,94277.20
2023-01-11T22:18:58.467Z,94275.80
2023-01-11T22:21:26.083Z,94273.40
2023-01-11T22:23:53.596Z,94270.20
2023-01-11T22:26:21.327Z,94272.20
2023-01-11T22:29:07.698Z,94277.80
2023-01-11T22:31:35.401Z,94273.80
2023-01-11T22:34:02.914Z,94277.40
2023-01-11T22:36:30.454Z,94279.80
2023-01-11T22:38:57.994Z,94266.60
2023-01-11T22:41:25.481Z,94267.60
2023-01-11T22:43:52.948Z,94262.80
2023-01-11T22:46:20.595Z,94266.80
2023-01-11T22:48:48.797Z,94268.20
2023-01-11T22:51:16.368Z,94271.40
2023-01-11T22:53:43.928Z,94274.20
2023-01-11T22:56:11.386Z,94270.40
2023-01-11T22:58:39.118Z,94269.40
2023-01-11T23:01:07.531Z,94270.40
2023-01-11T23:03:35.039Z,94268.80
2023-01-11T23:06:02.672Z,94264.80
2023-01-11T23:08:30.242Z,94260.80
2023-01-11T23:10:57.751Z,94255.00
2023-01-11T23:13:44.121Z,94264.20
2023-01-11T23:16:13.702Z,94255.60
2023-01-11T23:18:42.415Z,94262.00
2023-01-11T23:21:10.209Z,94269.20
2023-01-11T23:23:38.229Z,94261.40
2023-01-11T23:26:05.980Z,94257.40
2023-01-11T23:28:33.671Z,94250.80
2023-01-11T23:34:23.410Z,94257.60
2023-01-11T23:36:50.930Z,94261.00
2023-01-11T23:39:21.610Z,94263.60
2023-01-11T23:42:08.039Z,94269.80
2023-01-11T23:44:35.527Z,94270.20
2023-01-11T23:47:21.572Z,94267.60
2023-01-11T23:49:49.676Z,94275.60
2023-01-11T23:52:17.195Z,94277.20
2023-01-11T23:54:45.762Z,94281.00
2023-01-11T23:57:13.521Z,94283.00
2023-01-11T23:59:41.180Z,94288.40
